sensor_id;sensor_type;location;lat;lon;timestamp;P1;durP1;ratioP1;P2;durP2;ratioP2
61785;SDS011;47692;53.714;11.372;2023-04-03T00:00:37;3.78;;;1.40;;
61785;SDS011;47692;53.714;11.372;2023-04-03T00:03:03;3.40;;;1.45;;
61785;SDS011;47692;53.714;11.372;2023-04-03T00:05:28;2.55;;;1.30;;
61785;SDS011;47692;53.714;11.372;2023-04-03T00:07:54;2.10;;;1.13;;
61785;SDS011;47692;53.714;11.372;2023-04-03T00:10:19;3.22;;;1.40;;
61785;SDS011;47692;53.714;11.372;2023-04-03T00:12:45;4.32;;;1.35;;
61785;SDS011;47692;53.714;11.372;2023-04-03T00:15:10;4.28;;;1.45;;
61785;SDS011;47692;53.714;11.372;2023-04-03T00:17:35;5.57;;;1.95;;
61785;SDS011;47692;53.714;11.372;2023-04-03T00:20:01;3.28;;;1.83;;
61785;SDS011;47692;53.714;11.372;2023-04-03T00:22:27;3.65;;;1.40;;
61785;SDS011;47692;53.714;11.372;2023-04-03T00:24:53;2.95;;;1.42;;
61785;SDS011;47692;53.714;11.372;2023-04-03T00:27:19;2.65;;;1.40;;
61785;SDS011;47692;53.714;11.372;2023-04-03T00:29:44;8.13;;;1.38;;
61785;SDS011;47692;53.714;11.372;2023-04-03T00:32:10;3.10;;;1.42;;
61785;SDS011;47692;53.714;11.372;2023-04-03T00:34:35;3.45;;;1.50;;
61785;SDS011;47692;53.714;11.372;2023-04-03T00:37:00;4.35;;;1.42;;
61785;SDS011;47692;53.714;11.372;2023-04-03T00:39:26;2.50;;;1.25;;
61785;SDS011;47692;53.714;11.372;2023-04-03T00:41:51;2.92;;;1.30;;
61785;SDS011;47692;53.714;11.372;2023-04-03T00:46:57;4.45;;;1.17;;
61785;SDS011;47692;53.714;11.372;2023-04-03T00:49:22;3.75;;;1.40;;
61785;SDS011;47692;53.714;11.372;2023-04-03T00:51:48;3.10;;;1.40;;
61785;SDS011;47692;53.714;11.372;2023-04-03T00:54:13;3.80;;;1.13;;
61785;SDS011;47692;53.714;11.372;2023-04-03T00:56:38;2.28;;;1.35;;
61785;SDS011;47692;53.714;11.372;2023-04-03T00:59:06;3.50;;;1.48;;
61785;SDS011;47692;53.714;11.372;2023-04-03T01:01:36;3.78;;;1.30;;
61785;SDS011;47692;53.714;11.372;2023-04-03T01:04:02;3.03;;;1.38;;
61785;SDS011;47692;53.714;11.372;2023-04-03T01:06:29;3.60;;;1.60;;
61785;SDS011;47692;53.714;11.372;2023-04-03T01:08:58;4.38;;;1.75;;
61785;SDS011;47692;53.714;11.372;2023-04-03T01:11:25;4.63;;;1.67;;
61785;SDS011;47692;53.714;11.372;2023-04-03T01:13:51;2.40;;;1.75;;
61785;SDS011;47692;53.714;11.372;2023-04-03T01:16:16;3.28;;;1.60;;
61785;SDS011;47692;53.714;11.372;2023-04-03T01:18:42;4.03;;;1.85;;
61785;SDS011;47692;53.714;11.372;2023-04-03T01:26:43;4.90;;;1.60;;
61785;SDS011;47692;53.714;11.372;2023-04-03T01:29:09;2.97;;;1.42;;
61785;SDS011;47692;53.714;11.372;2023-04-03T01:34:13;5.28;;;1.50;;
61785;SDS011;47692;53.714;11.372;2023-04-03T01:36:38;3.25;;;1.80;;
61785;SDS011;47692;53.714;11.372;2023-04-03T01:39:04;6.32;;;1.55;;
61785;SDS011;47692;53.714;11.372;2023-04-03T01:41:29;3.22;;;1.50;;
61785;SDS011;47692;53.714;11.372;2023-04-03T01:43:54;2.67;;;1.45;;
61785;SDS011;47692;53.714;11.372;2023-04-03T01:46:20;5.53;;;1.90;;
61785;SDS011;47692;53.714;11.372;2023-04-03T01:48:46;8.82;;;1.70;;
61785;SDS011;47692;53.714;11.372;2023-04-03T01:51:12;3.70;;;1.80;;
61785;SDS011;47692;53.714;11.372;2023-04-03T01:53:38;3.72;;;1.90;;
61785;SDS011;47692;53.714;11.372;2023-04-03T01:56:03;4.07;;;1.80;;
61785;SDS011;47692;53.714;11.372;2023-04-03T01:58:29;4.10;;;1.67;;
61785;SDS011;47692;53.714;11.372;2023-04-03T02:00:54;3.65;;;1.52;;
61785;SDS011;47692;53.714;11.372;2023-04-03T02:03:20;4.03;;;1.58;;
61785;SDS011;47692;53.714;11.372;2023-04-03T02:05:46;5.00;;;2.25;;
61785;SDS011;47692;53.714;11.372;2023-04-03T02:08:11;4.25;;;2.08;;
61785;SDS011;47692;53.714;11.372;2023-04-03T02:10:37;3.28;;;2.15;;
61785;SDS011;47692;53.714;11.372;2023-04-03T02:13:03;5.78;;;2.50;;
61785;SDS011;47692;53.714;11.372;2023-04-03T02:15:28;5.55;;;2.53;;
61785;SDS011;47692;53.714;11.372;2023-04-03T02:17:54;5.63;;;2.47;;
61785;SDS011;47692;53.714;11.372;2023-04-03T02:20:19;3.75;;;2.58;;
61785;SDS011;47692;53.714;11.372;2023-04-03T02:22:45;3.35;;;2.40;;
61785;SDS011;47692;53.714;11.372;2023-04-03T02:25:10;4.18;;;2.03;;
61785;SDS011;47692;53.714;11.372;2023-04-03T02:27:36;5.88;;;2.67;;
61785;SDS011;47692;53.714;11.372;2023-04-03T02:30:02;4.63;;;2.83;;
61785;SDS011;47692;53.714;11.372;2023-04-03T02:32:28;5.13;;;2.53;;
61785;SDS011;47692;53.714;11.372;2023-04-03T02:34:53;5.15;;;2.85;;
61785;SDS011;47692;53.714;11.372;2023-04-03T02:37:19;4.63;;;2.42;;
61785;SDS011;47692;53.714;11.372;2023-04-03T02:39:44;4.78;;;2.15;;
61785;SDS011;47692;53.714;11.372;2023-04-03T02:42:09;5.40;;;2.75;;
61785;SDS011;47692;53.714;11.372;2023-04-03T02:44:35;4.70;;;2.70;;
61785;SDS011;47692;53.714;11.372;2023-04-03T02:47:00;4.82;;;2.67;;
61785;SDS011;47692;53.714;11.372;2023-04-03T02:49:26;6.00;;;2.90;;
61785;SDS011;47692;53.714;11.372;2023-04-03T02:51:51;6.68;;;2.90;;
61785;SDS011;47692;53.714;11.372;2023-04-03T02:54:17;10.20;;;3.13;;
61785;SDS011;47692;53.714;11.372;2023-04-03T02:56:42;5.28;;;2.83;;
61785;SDS011;47692;53.714;11.372;2023-04-03T02:59:08;5.28;;;2.92;;
61785;SDS011;47692;53.714;11.372;2023-04-03T03:01:33;5.40;;;2.67;;
61785;SDS011;47692;53.714;11.372;2023-04-03T03:03:59;8.43;;;3.25;;
61785;SDS011;47692;53.714;11.372;2023-04-03T03:06:25;4.18;;;2.72;;
61785;SDS011;47692;53.714;11.372;2023-04-03T03:08:51;5.95;;;3.20;;
61785;SDS011;47692;53.714;11.372;2023-04-03T03:11:17;5.22;;;2.63;;
61785;SDS011;47692;53.714;11.372;2023-04-03T03:13:42;5.35;;;2.25;;
61785;SDS011;47692;53.714;11.372;2023-04-03T03:16:07;5.88;;;3.33;;
61785;SDS011;47692;53.714;11.372;2023-04-03T03:18:33;7.40;;;3.13;;
61785;SDS011;47692;53.714;11.372;2023-04-03T03:20:59;3.83;;;2.47;;
61785;SDS011;47692;53.714;11.372;2023-04-03T03:23:26;4.07;;;2.78;;
61785;SDS011;47692;53.714;11.372;2023-04-03T03:25:57;4.78;;;2.97;;
61785;SDS011;47692;53.714;11.372;2023-04-03T03:28:23;7.38;;;3.33;;
61785;SDS011;47692;53.714;11.372;2023-04-03T03:30:49;6.72;;;3.38;;
61785;SDS011;47692;53.714;11.372;2023-04-03T03:33:14;7.88;;;3.38;;
61785;SDS011;47692;53.714;11.372;2023-04-03T03:35:40;5.78;;;3.28;;
61785;SDS011;47692;53.714;11.372;2023-04-03T03:38:06;6.43;;;2.88;;
61785;SDS011;47692;53.714;11.372;2023-04-03T03:40:32;6.63;;;3.80;;
61785;SDS011;47692;53.714;11.372;2023-04-03T03:42:57;6.75;;;3.30;;
61785;SDS011;47692;53.714;11.372;2023-04-03T03:45:22;5.35;;;3.22;;
61785;SDS011;47692;53.714;11.372;2023-04-03T03:47:48;8.90;;;3.90;;
61785;SDS011;47692;53.714;11.372;2023-04-03T03:50:13;4.82;;;3.40;;
61785;SDS011;47692;53.714;11.372;2023-04-03T03:52:38;6.93;;;3.38;;
61785;SDS011;47692;53.714;11.372;2023-04-03T03:55:04;6.93;;;3.15;;
61785;SDS011;47692;53.714;11.372;2023-04-03T03:57:29;9.10;;;3.25;;
61785;SDS011;47692;53.714;11.372;2023-04-03T03:59:55;6.70;;;2.80;;
61785;SDS011;47692;53.714;11.372;2023-04-03T04:02:20;5.85;;;2.88;;
61785;SDS011;47692;53.714;11.372;2023-04-03T04:04:46;3.90;;;2.60;;
61785;SDS011;47692;53.714;11.372;2023-04-03T04:07:11;2.72;;;2.10;;
61785;SDS011;47692;53.714;11.372;2023-04-03T04:09:36;5.65;;;2.92;;
61785;SDS011;47692;53.714;11.372;2023-04-03T04:12:02;6.72;;;2.38;;
61785;SDS011;47692;53.714;11.372;2023-04-03T04:14:27;5.07;;;2.38;;
61785;SDS011;47692;53.714;11.372;2023-04-03T04:16:52;3.13;;;2.00;;
61785;SDS011;47692;53.714;11.372;2023-04-03T04:19:18;5.07;;;1.98;;
61785;SDS011;47692;53.714;11.372;2023-04-03T04:21:43;3.42;;;1.70;;
61785;SDS011;47692;53.714;11.372;2023-04-03T04:24:08;2.67;;;1.52;;
61785;SDS011;47692;53.714;11.372;2023-04-03T04:26:34;3.78;;;1.40;;
61785;SDS011;47692;53.714;11.372;2023-04-03T04:28:59;3.08;;;1.60;;
61785;SDS011;47692;53.714;11.372;2023-04-03T04:31:25;6.65;;;1.63;;
61785;SDS011;47692;53.714;11.372;2023-04-03T04:33:50;3.90;;;1.23;;
61785;SDS011;47692;53.714;11.372;2023-04-03T04:36:16;2.65;;;1.30;;
61785;SDS011;47692;53.714;11.372;2023-04-03T04:38:41;1.75;;;0.93;;
61785;SDS011;47692;53.714;11.372;2023-04-03T04:41:07;3.15;;;1.35;;
61785;SDS011;47692;53.714;11.372;2023-04-03T04:43:32;4.15;;;1.30;;
61785;SDS011;47692;53.714;11.372;2023-04-03T04:46:05;3.92;;;1.52;;
61785;SDS011;47692;53.714;11.372;2023-04-03T04:48:30;2.83;;;1.02;;
61785;SDS011;47692;53.714;11.372;2023-04-03T04:50:55;3.55;;;1.60;;
61785;SDS011;47692;53.714;11.372;2023-04-03T04:53:21;2.95;;;1.17;;
61785;SDS011;47692;53.714;11.372;2023-04-03T04:55:46;2.60;;;1.10;;
61785;SDS011;47692;53.714;11.372;2023-04-03T04:58:11;1.60;;;0.93;;
61785;SDS011;47692;53.714;11.372;2023-04-03T05:00:37;2.38;;;1.00;;
61785;SDS011;47692;53.714;11.372;2023-04-03T05:03:02;2.25;;;1.05;;
61785;SDS011;47692;53.714;11.372;2023-04-03T05:05:27;2.50;;;0.98;;
61785;SDS011;47692;53.714;11.372;2023-04-03T05:07:53;1.73;;;0.98;;
61785;SDS011;47692;53.714;11.372;2023-04-03T05:10:18;2.13;;;0.70;;
61785;SDS011;47692;53.714;11.372;2023-04-03T05:12:43;1.90;;;0.82;;
61785;SDS011;47692;53.714;11.372;2023-04-03T05:15:09;1.23;;;0.80;;
61785;SDS011;47692;53.714;11.372;2023-04-03T05:17:34;2.53;;;1.02;;
61785;SDS011;47692;53.714;11.372;2023-04-03T05:20:01;2.88;;;1.20;;
61785;SDS011;47692;53.714;11.372;2023-04-03T05:22:27;3.45;;;1.10;;
61785;SDS011;47692;53.714;11.372;2023-04-03T05:24:52;1.35;;;0.80;;
61785;SDS011;47692;53.714;11.372;2023-04-03T05:27:17;5.45;;;0.90;;
61785;SDS011;47692;53.714;11.372;2023-04-03T05:29:42;2.05;;;0.77;;
61785;SDS011;47692;53.714;11.372;2023-04-03T05:32:09;2.50;;;1.00;;
61785;SDS011;47692;53.714;11.372;2023-04-03T05:34:35;2.92;;;1.23;;
61785;SDS011;47692;53.714;11.372;2023-04-03T05:37:00;5.03;;;1.05;;
61785;SDS011;47692;53.714;11.372;2023-04-03T05:39:28;3.85;;;0.95;;
61785;SDS011;47692;53.714;11.372;2023-04-03T05:41:53;2.92;;;0.95;;
61785;SDS011;47692;53.714;11.372;2023-04-03T05:44:19;1.75;;;0.85;;
61785;SDS011;47692;53.714;11.372;2023-04-03T05:46:44;3.03;;;0.95;;
61785;SDS011;47692;53.714;11.372;2023-04-03T05:49:09;5.20;;;1.25;;
61785;SDS011;47692;53.714;11.372;2023-04-03T05:51:35;2.50;;;0.93;;
61785;SDS011;47692;53.714;11.372;2023-04-03T05:54:24;3.47;;;1.00;;
61785;SDS011;47692;53.714;11.372;2023-04-03T05:56:51;1.95;;;0.98;;
61785;SDS011;47692;53.714;11.372;2023-04-03T05:59:18;2.85;;;1.10;;
61785;SDS011;47692;53.714;11.372;2023-04-03T06:01:44;5.13;;;1.33;;
61785;SDS011;47692;53.714;11.372;2023-04-03T06:04:09;4.07;;;1.20;;
61785;SDS011;47692;53.714;11.372;2023-04-03T06:06:48;1.45;;;0.90;;
61785;SDS011;47692;53.714;11.372;2023-04-03T06:09:19;3.78;;;1.15;;
61785;SDS011;47692;53.714;11.372;2023-04-03T06:11:47;2.42;;;1.05;;
61785;SDS011;47692;53.714;11.372;2023-04-03T06:14:12;5.97;;;1.48;;
61785;SDS011;47692;53.714;11.372;2023-04-03T06:16:37;4.43;;;1.20;;
61785;SDS011;47692;53.714;11.372;2023-04-03T06:19:04;1.42;;;1.00;;
61785;SDS011;47692;53.714;11.372;2023-04-03T06:21:30;2.30;;;0.98;;
61785;SDS011;47692;53.714;11.372;2023-04-03T06:23:56;3.22;;;1.00;;
61785;SDS011;47692;53.714;11.372;2023-04-03T06:26:21;4.32;;;1.13;;
61785;SDS011;47692;53.714;11.372;2023-04-03T06:28:47;4.10;;;1.15;;
61785;SDS011;47692;53.714;11.372;2023-04-03T06:31:12;1.25;;;1.00;;
61785;SDS011;47692;53.714;11.372;2023-04-03T06:33:38;2.47;;;1.05;;
61785;SDS011;47692;53.714;11.372;2023-04-03T06:36:04;6.63;;;1.10;;
61785;SDS011;47692;53.714;11.372;2023-04-03T06:38:33;5.10;;;1.02;;
61785;SDS011;47692;53.714;11.372;2023-04-03T06:40:59;1.77;;;1.10;;
61785;SDS011;47692;53.714;11.372;2023-04-03T06:43:25;2.55;;;0.77;;
61785;SDS011;47692;53.714;11.372;2023-04-03T06:45:51;5.78;;;0.90;;
61785;SDS011;47692;53.714;11.372;2023-04-03T06:48:16;2.00;;;1.00;;
61785;SDS011;47692;53.714;11.372;2023-04-03T06:50:42;4.35;;;1.05;;
61785;SDS011;47692;53.714;11.372;2023-04-03T06:53:07;1.50;;;0.80;;
61785;SDS011;47692;53.714;11.372;2023-04-03T06:55:33;2.00;;;0.90;;
61785;SDS011;47692;53.714;11.372;2023-04-03T06:57:59;3.33;;;0.82;;
61785;SDS011;47692;53.714;11.372;2023-04-03T07:00:24;3.90;;;1.00;;
61785;SDS011;47692;53.714;11.372;2023-04-03T07:02:49;5.53;;;1.13;;
61785;SDS011;47692;53.714;11.372;2023-04-03T07:05:15;2.67;;;0.80;;
61785;SDS011;47692;53.714;11.372;2023-04-03T07:07:40;1.48;;;0.73;;
61785;SDS011;47692;53.714;11.372;2023-04-03T07:10:06;2.92;;;0.95;;
61785;SDS011;47692;53.714;11.372;2023-04-03T07:12:32;4.30;;;1.00;;
61785;SDS011;47692;53.714;11.372;2023-04-03T07:14:57;2.75;;;0.70;;
61785;SDS011;47692;53.714;11.372;2023-04-03T07:17:23;1.00;;;0.50;;
61785;SDS011;47692;53.714;11.372;2023-04-03T07:19:48;3.05;;;0.80;;
61785;SDS011;47692;53.714;11.372;2023-04-03T07:22:14;1.65;;;0.80;;
61785;SDS011;47692;53.714;11.372;2023-04-03T07:24:39;1.95;;;0.93;;
61785;SDS011;47692;53.714;11.372;2023-04-03T07:27:05;2.42;;;0.70;;
61785;SDS011;47692;53.714;11.372;2023-04-03T07:29:31;4.20;;;0.90;;
61785;SDS011;47692;53.714;11.372;2023-04-03T07:31:56;4.47;;;1.25;;
61785;SDS011;47692;53.714;11.372;2023-04-03T07:34:22;3.50;;;0.70;;
61785;SDS011;47692;53.714;11.372;2023-04-03T07:36:47;1.55;;;0.68;;
61785;SDS011;47692;53.714;11.372;2023-04-03T07:39:12;3.92;;;1.20;;
61785;SDS011;47692;53.714;11.372;2023-04-03T07:41:38;3.38;;;0.80;;
61785;SDS011;47692;53.714;11.372;2023-04-03T07:44:03;4.82;;;0.80;;
61785;SDS011;47692;53.714;11.372;2023-04-03T07:46:30;2.80;;;0.90;;
61785;SDS011;47692;53.714;11.372;2023-04-03T07:48:56;4.07;;;0.93;;
61785;SDS011;47692;53.714;11.372;2023-04-03T07:51:21;1.38;;;0.73;;
61785;SDS011;47692;53.714;11.372;2023-04-03T07:53:46;2.67;;;0.70;;
61785;SDS011;47692;53.714;11.372;2023-04-03T07:56:11;2.70;;;0.50;;
61785;SDS011;47692;53.714;11.372;2023-04-03T07:58:37;1.90;;;0.65;;
61785;SDS011;47692;53.714;11.372;2023-04-03T08:01:02;4.22;;;0.73;;
61785;SDS011;47692;53.714;11.372;2023-04-03T08:03:28;1.88;;;0.68;;
61785;SDS011;47692;53.714;11.372;2023-04-03T08:05:53;1.83;;;0.90;;
61785;SDS011;47692;53.714;11.372;2023-04-03T08:08:20;2.67;;;0.77;;
61785;SDS011;47692;53.714;11.372;2023-04-03T08:10:53;1.23;;;0.70;;
61785;SDS011;47692;53.714;11.372;2023-04-03T08:15:45;2.67;;;0.60;;
61785;SDS011;47692;53.714;11.372;2023-04-03T08:18:11;2.30;;;0.77;;
61785;SDS011;47692;53.714;11.372;2023-04-03T08:20:37;4.18;;;1.00;;
61785;SDS011;47692;53.714;11.372;2023-04-03T08:23:03;2.67;;;1.08;;
61785;SDS011;47692;53.714;11.372;2023-04-03T08:25:28;2.50;;;0.70;;
61785;SDS011;47692;53.714;11.372;2023-04-03T08:27:54;2.30;;;0.90;;
61785;SDS011;47692;53.714;11.372;2023-04-03T08:30:20;5.68;;;1.10;;
61785;SDS011;47692;53.714;11.372;2023-04-03T08:32:45;4.60;;;0.85;;
61785;SDS011;47692;53.714;11.372;2023-04-03T08:35:11;2.92;;;0.85;;
61785;SDS011;47692;53.714;11.372;2023-04-03T08:37:36;4.60;;;1.20;;
61785;SDS011;47692;53.714;11.372;2023-04-03T08:40:04;4.78;;;1.00;;
61785;SDS011;47692;53.714;11.372;2023-04-03T08:45:15;3.15;;;0.88;;
61785;SDS011;47692;53.714;11.372;2023-04-03T08:50:21;3.05;;;0.93;;
61785;SDS011;47692;53.714;11.372;2023-04-03T08:53:02;3.13;;;0.93;;
61785;SDS011;47692;53.714;11.372;2023-04-03T08:55:33;2.35;;;0.88;;
61785;SDS011;47692;53.714;11.372;2023-04-03T09:00:26;2.78;;;0.95;;
61785;SDS011;47692;53.714;11.372;2023-04-03T09:02:56;3.47;;;1.00;;
61785;SDS011;47692;53.714;11.372;2023-04-03T09:10:26;3.27;;;0.80;;
61785;SDS011;47692;53.714;11.372;2023-04-03T09:13:06;4.72;;;1.20;;
61785;SDS011;47692;53.714;11.372;2023-04-03T09:15:34;3.75;;;1.08;;
61785;SDS011;47692;53.714;11.372;2023-04-03T09:18:23;2.10;;;0.93;;
61785;SDS011;47692;53.714;11.372;2023-04-03T09:23:44;3.60;;;1.00;;
61785;SDS011;47692;53.714;11.372;2023-04-03T09:26:34;4.13;;;1.10;;
61785;SDS011;47692;53.714;11.372;2023-04-03T09:29:02;3.88;;;0.90;;
61785;SDS011;47692;53.714;11.372;2023-04-03T09:31:36;2.83;;;0.90;;
61785;SDS011;47692;53.714;11.372;2023-04-03T09:34:15;1.50;;;0.70;;
61785;SDS011;47692;53.714;11.372;2023-04-03T09:36:47;5.88;;;0.70;;
61785;SDS011;47692;53.714;11.372;2023-04-03T09:39:19;3.83;;;0.82;;
61785;SDS011;47692;53.714;11.372;2023-04-03T09:44:24;5.38;;;0.90;;
61785;SDS011;47692;53.714;11.372;2023-04-03T09:46:51;2.65;;;0.93;;
61785;SDS011;47692;53.714;11.372;2023-04-03T09:49:17;5.28;;;1.17;;
61785;SDS011;47692;53.714;11.372;2023-04-03T09:51:43;1.13;;;0.60;;
61785;SDS011;47692;53.714;11.372;2023-04-03T09:56:56;3.28;;;0.60;;
61785;SDS011;47692;53.714;11.372;2023-04-03T09:59:26;3.65;;;1.00;;
61785;SDS011;47692;53.714;11.372;2023-04-03T10:01:59;2.30;;;1.08;;
61785;SDS011;47692;53.714;11.372;2023-04-03T10:04:36;4.13;;;1.13;;
61785;SDS011;47692;53.714;11.372;2023-04-03T10:07:04;1.60;;;0.60;;
61785;SDS011;47692;53.714;11.372;2023-04-03T10:10:01;2.88;;;0.60;;
61785;SDS011;47692;53.714;11.372;2023-04-03T10:12:42;1.67;;;0.70;;
61785;SDS011;47692;53.714;11.372;2023-04-03T10:15:11;1.95;;;0.52;;
61785;SDS011;47692;53.714;11.372;2023-04-03T10:23:17;1.98;;;0.40;;
61785;SDS011;47692;53.714;11.372;2023-04-03T10:28:25;2.47;;;0.45;;
61785;SDS011;47692;53.714;11.372;2023-04-03T10:39:08;3.63;;;0.70;;
61785;SDS011;47692;53.714;11.372;2023-04-03T10:42:00;1.23;;;0.60;;
61785;SDS011;47692;53.714;11.372;2023-04-03T10:44:36;3.28;;;0.90;;
61785;SDS011;47692;53.714;11.372;2023-04-03T10:55:02;1.10;;;0.50;;
61785;SDS011;47692;53.714;11.372;2023-04-03T10:57:44;3.25;;;0.85;;
61785;SDS011;47692;53.714;11.372;2023-04-03T11:00:53;1.27;;;0.70;;
61785;SDS011;47692;53.714;11.372;2023-04-03T11:03:16;1.20;;;0.43;;
61785;SDS011;47692;53.714;11.372;2023-04-03T11:05:49;4.15;;;0.68;;
61785;SDS011;47692;53.714;11.372;2023-04-03T11:10:48;1.73;;;0.50;;
61785;SDS011;47692;53.714;11.372;2023-04-03T11:15:50;2.15;;;0.80;;
61785;SDS011;47692;53.714;11.372;2023-04-03T11:18:19;1.75;;;0.77;;
61785;SDS011;47692;53.714;11.372;2023-04-03T11:20:57;1.30;;;0.70;;
61785;SDS011;47692;53.714;11.372;2023-04-03T11:23:30;1.92;;;0.50;;
61785;SDS011;47692;53.714;11.372;2023-04-03T11:26:19;1.92;;;0.70;;
61785;SDS011;47692;53.714;11.372;2023-04-03T11:28:56;2.78;;;0.98;;
61785;SDS011;47692;53.714;11.372;2023-04-03T11:31:29;0.88;;;0.60;;
61785;SDS011;47692;53.714;11.372;2023-04-03T11:41:48;2.33;;;0.80;;
61785;SDS011;47692;53.714;11.372;2023-04-03T11:46:58;3.25;;;0.65;;
61785;SDS011;47692;53.714;11.372;2023-04-03T12:05:53;1.63;;;0.50;;
61785;SDS011;47692;53.714;11.372;2023-04-03T12:08:45;4.28;;;0.77;;
61785;SDS011;47692;53.714;11.372;2023-04-03T12:21:22;2.67;;;0.60;;
61785;SDS011;47692;53.714;11.372;2023-04-03T12:29:23;1.15;;;0.47;;
61785;SDS011;47692;53.714;11.372;2023-04-03T12:35:01;7.32;;;0.77;;
61785;SDS011;47692;53.714;11.372;2023-04-03T12:45:36;2.17;;;0.50;;
61785;SDS011;47692;53.714;11.372;2023-04-03T12:48:12;3.10;;;0.50;;
61785;SDS011;47692;53.714;11.372;2023-04-03T12:50:40;1.15;;;0.40;;
61785;SDS011;47692;53.714;11.372;2023-04-03T12:53:18;1.77;;;0.60;;
61785;SDS011;47692;53.714;11.372;2023-04-03T12:55:47;1.52;;;0.40;;
61785;SDS011;47692;53.714;11.372;2023-04-03T12:58:22;1.55;;;0.30;;
61785;SDS011;47692;53.714;11.372;2023-04-03T13:01:00;0.65;;;0.28;;
61785;SDS011;47692;53.714;11.372;2023-04-03T13:03:28;5.15;;;0.50;;
61785;SDS011;47692;53.714;11.372;2023-04-03T13:05:55;1.77;;;0.55;;
61785;SDS011;47692;53.714;11.372;2023-04-03T13:08:25;3.03;;;0.32;;
61785;SDS011;47692;53.714;11.372;2023-04-03T13:10:55;3.30;;;0.60;;
61785;SDS011;47692;53.714;11.372;2023-04-03T13:13:25;1.15;;;0.40;;
61785;SDS011;47692;53.714;11.372;2023-04-03T13:15:51;2.22;;;0.50;;
61785;SDS011;47692;53.714;11.372;2023-04-03T13:18:21;1.38;;;0.45;;
61785;SDS011;47692;53.714;11.372;2023-04-03T13:20:51;2.45;;;0.63;;
61785;SDS011;47692;53.714;11.372;2023-04-03T13:23:17;2.53;;;0.50;;
61785;SDS011;47692;53.714;11.372;2023-04-03T13:25:45;1.88;;;0.60;;
61785;SDS011;47692;53.714;11.372;2023-04-03T13:28:13;2.05;;;0.50;;
61785;SDS011;47692;53.714;11.372;2023-04-03T13:30:53;3.95;;;0.50;;
61785;SDS011;47692;53.714;11.372;2023-04-03T13:33:25;3.75;;;0.77;;
61785;SDS011;47692;53.714;11.372;2023-04-03T13:35:57;1.55;;;0.35;;
61785;SDS011;47692;53.714;11.372;2023-04-03T13:38:29;2.17;;;0.57;;
61785;SDS011;47692;53.714;11.372;2023-04-03T13:41:20;2.07;;;0.77;;
61785;SDS011;47692;53.714;11.372;2023-04-03T13:43:49;2.00;;;0.45;;
61785;SDS011;47692;53.714;11.372;2023-04-03T13:56:40;5.72;;;1.13;;
61785;SDS011;47692;53.714;11.372;2023-04-03T14:01:44;1.60;;;0.45;;
61785;SDS011;47692;53.714;11.372;2023-04-03T14:04:12;2.60;;;0.50;;
61785;SDS011;47692;53.714;11.372;2023-04-03T14:06:45;2.85;;;0.50;;
61785;SDS011;47692;53.714;11.372;2023-04-03T14:09:12;4.10;;;0.70;;
61785;SDS011;47692;53.714;11.372;2023-04-03T14:11:38;5.65;;;0.60;;
61785;SDS011;47692;53.714;11.372;2023-04-03T14:14:18;4.15;;;0.75;;
61785;SDS011;47692;53.714;11.372;2023-04-03T14:16:47;3.92;;;0.68;;
61785;SDS011;47692;53.714;11.372;2023-04-03T14:19:38;2.60;;;0.47;;
61785;SDS011;47692;53.714;11.372;2023-04-03T14:22:22;3.13;;;0.60;;
61785;SDS011;47692;53.714;11.372;2023-04-03T14:24:50;0.95;;;0.45;;
61785;SDS011;47692;53.714;11.372;2023-04-03T14:27:20;1.98;;;0.70;;
61785;SDS011;47692;53.714;11.372;2023-04-03T14:29:52;2.97;;;0.95;;
61785;SDS011;47692;53.714;11.372;2023-04-03T14:32:20;0.93;;;0.57;;
61785;SDS011;47692;53.714;11.372;2023-04-03T14:34:46;2.22;;;0.50;;
61785;SDS011;47692;53.714;11.372;2023-04-03T14:37:13;2.35;;;0.30;;
61785;SDS011;47692;53.714;11.372;2023-04-03T14:39:41;3.35;;;0.52;;
61785;SDS011;47692;53.714;11.372;2023-04-03T14:42:15;2.78;;;1.38;;
61785;SDS011;47692;53.714;11.372;2023-04-03T14:44:43;2.97;;;0.50;;
61785;SDS011;47692;53.714;11.372;2023-04-03T14:47:10;3.75;;;0.55;;
61785;SDS011;47692;53.714;11.372;2023-04-03T14:49:37;1.77;;;0.45;;
61785;SDS011;47692;53.714;11.372;2023-04-03T14:52:02;2.60;;;0.40;;
61785;SDS011;47692;53.714;11.372;2023-04-03T14:54:28;4.88;;;0.75;;
61785;SDS011;47692;53.714;11.372;2023-04-03T14:56:54;2.05;;;0.50;;
61785;SDS011;47692;53.714;11.372;2023-04-03T14:59:22;1.65;;;0.60;;
61785;SDS011;47692;53.714;11.372;2023-04-03T15:01:48;1.88;;;0.60;;
61785;SDS011;47692;53.714;11.372;2023-04-03T15:04:18;1.83;;;0.65;;
61785;SDS011;47692;53.714;11.372;2023-04-03T15:06:45;0.50;;;0.40;;
61785;SDS011;47692;53.714;11.372;2023-04-03T15:09:22;1.08;;;0.50;;
61785;SDS011;47692;53.714;11.372;2023-04-03T15:11:50;1.85;;;0.50;;
61785;SDS011;47692;53.714;11.372;2023-04-03T15:14:16;3.42;;;0.57;;
61785;SDS011;47692;53.714;11.372;2023-04-03T15:16:42;1.17;;;0.40;;
61785;SDS011;47692;53.714;11.372;2023-04-03T15:19:07;1.23;;;0.40;;
61785;SDS011;47692;53.714;11.372;2023-04-03T15:21:33;2.28;;;0.50;;
61785;SDS011;47692;53.714;11.372;2023-04-03T15:23:58;1.05;;;0.50;;
61785;SDS011;47692;53.714;11.372;2023-04-03T15:26:24;2.42;;;0.70;;
61785;SDS011;47692;53.714;11.372;2023-04-03T15:28:50;1.73;;;0.45;;
61785;SDS011;47692;53.714;11.372;2023-04-03T15:31:15;0.88;;;0.50;;
61785;SDS011;47692;53.714;11.372;2023-04-03T15:33:40;0.68;;;0.40;;
61785;SDS011;47692;53.714;11.372;2023-04-03T15:36:06;1.23;;;0.43;;
61785;SDS011;47692;53.714;11.372;2023-04-03T15:38:32;0.55;;;0.30;;
61785;SDS011;47692;53.714;11.372;2023-04-03T15:40:57;1.98;;;0.50;;
61785;SDS011;47692;53.714;11.372;2023-04-03T15:43:23;0.73;;;0.40;;
61785;SDS011;47692;53.714;11.372;2023-04-03T15:45:48;1.48;;;0.40;;
61785;SDS011;47692;53.714;11.372;2023-04-03T15:48:15;1.38;;;0.40;;
61785;SDS011;47692;53.714;11.372;2023-04-03T15:50:41;1.98;;;0.50;;
61785;SDS011;47692;53.714;11.372;2023-04-03T15:53:06;0.75;;;0.40;;
61785;SDS011;47692;53.714;11.372;2023-04-03T15:55:33;6.30;;;0.70;;
61785;SDS011;47692;53.714;11.372;2023-04-03T15:58:00;2.03;;;0.60;;
61785;SDS011;47692;53.714;11.372;2023-04-03T16:00:26;1.23;;;0.60;;
61785;SDS011;47692;53.714;11.372;2023-04-03T16:02:53;2.25;;;0.57;;
61785;SDS011;47692;53.714;11.372;2023-04-03T16:05:22;0.90;;;0.40;;
61785;SDS011;47692;53.714;11.372;2023-04-03T16:07:48;1.27;;;0.35;;
61785;SDS011;47692;53.714;11.372;2023-04-03T16:10:14;0.70;;;0.40;;
61785;SDS011;47692;53.714;11.372;2023-04-03T16:12:40;1.45;;;0.50;;
61785;SDS011;47692;53.714;11.372;2023-04-03T16:15:06;1.38;;;0.47;;
61785;SDS011;47692;53.714;11.372;2023-04-03T16:17:33;1.13;;;0.55;;
61785;SDS011;47692;53.714;11.372;2023-04-03T16:20:00;2.53;;;0.50;;
61785;SDS011;47692;53.714;11.372;2023-04-03T16:22:26;1.65;;;0.40;;
61785;SDS011;47692;53.714;11.372;2023-04-03T16:24:53;1.50;;;0.38;;
61785;SDS011;47692;53.714;11.372;2023-04-03T16:27:19;1.73;;;0.60;;
61785;SDS011;47692;53.714;11.372;2023-04-03T16:29:45;1.13;;;0.47;;
61785;SDS011;47692;53.714;11.372;2023-04-03T16:32:10;0.98;;;0.50;;
61785;SDS011;47692;53.714;11.372;2023-04-03T16:34:37;1.42;;;0.63;;
61785;SDS011;47692;53.714;11.372;2023-04-03T16:37:03;3.63;;;0.63;;
61785;SDS011;47692;53.714;11.372;2023-04-03T16:39:28;2.13;;;0.60;;
61785;SDS011;47692;53.714;11.372;2023-04-03T16:41:56;0.82;;;0.40;;
61785;SDS011;47692;53.714;11.372;2023-04-03T16:44:21;1.60;;;0.47;;
61785;SDS011;47692;53.714;11.372;2023-04-03T16:46:46;1.85;;;0.50;;